Time;durP1;ratioP1;P1;durP2;ratioP2;P2;SDS_P1;SDS_P2;PMS_P1;PMS_P2;Temp;Humidity;BMP_temperature;BMP_pressure;BME280_temperature;BME280_humidity;BME280_pressure;Samples;Min_cycle;Max_cycle;Signal;HPM_P1;HPM_P2
2021/08/11 00:00:18;;;;;;;2.97;2.17;;;;;;;19.98;67.88;96990.22;5029997;28;20217;-57
2021/08/11 00:02:44;;;;;;;2.72;2.50;;;;;;;20.03;67.20;96986.72;5029225;28;20635;-63
2021/08/11 00:05:10;;;;;;;3.30;2.58;;;;;;;19.97;67.65;96988.66;5029545;28;20678;-58
2021/08/11 00:07:35;;;;;;;2.65;2.25;;;;;;;19.91;67.78;96989.75;5031103;28;20222;-59
2021/08/11 00:10:01;;;;;;;4.03;2.30;;;;;;;19.91;67.69;96985.25;5030284;28;20354;-60
2021/08/11 00:12:26;;;;;;;4.35;2.65;;;;;;;19.87;67.97;96986.88;5034776;28;20186;-59
2021/08/11 00:14:52;;;;;;;3.88;2.60;;;;;;;19.97;67.60;96988.66;5034232;28;20522;-58
2021/08/11 00:17:17;;;;;;;2.25;2.13;;;;;;;19.93;67.93;96988.41;5033808;28;20214;-60
2021/08/11 00:19:43;;;;;;;2.70;2.45;;;;;;;19.92;67.86;96991.34;5034808;28;20186;-63
2021/08/11 00:22:08;;;;;;;3.70;2.50;;;;;;;19.86;68.14;96987.16;5034139;28;20628;-59
2021/08/11 00:24:33;;;;;;;2.97;2.55;;;;;;;19.86;68.27;96989.81;5033171;28;20669;-62
2021/08/11 00:26:59;;;;;;;2.33;2.03;;;;;;;19.87;68.12;96989.53;5034049;28;20187;-60
2021/08/11 00:29:25;;;;;;;3.47;2.38;;;;;;;19.81;68.53;96984.53;5034849;28;20190;-60
2021/08/11 00:31:50;;;;;;;4.20;2.25;;;;;;;19.92;68.30;96986.84;5033665;28;20187;-60
2021/08/11 00:34:17;;;;;;;4.18;2.47;;;;;;;19.88;68.42;96982.34;5034416;28;20193;-60
2021/08/11 00:36:42;;;;;;;4.80;2.65;;;;;;;19.76;68.88;96980.06;5034510;28;20206;-61
2021/08/11 00:39:08;;;;;;;4.63;2.72;;;;;;;19.72;69.30;96983.56;5033154;28;20191;-59
2021/08/11 00:41:33;;;;;;;4.88;2.60;;;;;;;19.76;69.24;96984.59;5033834;28;20189;-58
2021/08/11 00:43:58;;;;;;;3.22;2.53;;;;;;;19.69;69.69;96989.44;5033335;28;20175;-58
2021/08/11 00:46:24;;;;;;;4.80;3.03;;;;;;;19.62;70.20;96981.78;5034247;28;20183;-58
2021/08/11 00:48:49;;;;;;;5.30;3.30;;;;;;;19.55;70.65;96988.50;5033674;28;20187;-57
2021/08/11 00:51:16;;;;;;;3.88;3.40;;;;;;;19.45;71.45;96992.81;5034015;28;20656;-59
2021/08/11 00:53:41;;;;;;;4.80;3.92;;;;;;;19.45;71.47;96987.50;5033947;28;20213;-58
2021/08/11 00:56:08;;;;;;;6.15;3.83;;;;;;;19.39;71.99;96993.13;5032411;28;20276;-58
2021/08/11 00:58:37;;;;;;;4.78;3.60;;;;;;;19.30;72.57;96987.59;5033992;28;20186;-58
2021/08/11 01:01:03;;;;;;;4.97;3.50;;;;;;;19.27;72.77;96993.47;5033350;28;20269;-57
2021/08/11 01:03:29;;;;;;;5.00;3.50;;;;;;;19.20;73.31;96984.22;5032973;28;20635;-58
2021/08/11 01:05:59;;;;;;;3.55;2.80;;;;;;;19.20;73.53;96981.56;5032789;28;20245;-58
2021/08/11 01:08:26;;;;;;;4.43;3.55;;;;;;;19.12;73.83;96982.91;5032987;28;20209;-58
2021/08/11 01:10:52;;;;;;;5.88;3.17;;;;;;;19.06;73.95;96984.81;5033096;28;20197;-59
2021/08/11 01:13:18;;;;;;;5.05;3.40;;;;;;;19.16;73.80;96980.53;5033727;28;20269;-57
2021/08/11 01:15:46;;;;;;;4.07;3.53;;;;;;;19.15;73.70;96971.75;5033550;28;20297;-56
2021/08/11 01:18:17;;;;;;;4.82;2.80;;;;;;;19.22;73.47;96982.06;5032347;28;20183;-59
2021/08/11 01:20:55;;;;;;;3.90;3.22;;;;;;;19.21;73.49;96981.28;5032072;28;20178;-59
2021/08/11 01:23:24;;;;;;;4.35;2.97;;;;;;;19.16;73.57;96983.19;5032191;28;20190;-59
2021/08/11 01:25:56;;;;;;;3.58;2.97;;;;;;;19.23;73.49;96987.09;5030722;28;20636;-59
2021/08/11 01:28:41;;;;;;;5.22;3.25;;;;;;;19.22;73.76;96985.53;5033811;28;20328;-59
2021/08/11 01:31:11;;;;;;;6.83;3.50;;;;;;;19.20;74.08;96985.00;5029414;28;20182;-57
2021/08/11 01:33:46;;;;;;;4.15;3.75;;;;;;;19.15;74.46;96982.38;5022797;28;20194;-56
2021/08/11 01:36:16;;;;;;;4.72;3.67;;;;;;;19.16;74.85;96989.28;5032936;28;20217;-58
2021/08/11 01:38:49;;;;;;;3.80;3.45;;;;;;;19.16;74.73;96983.97;5032317;28;20554;-59
2021/08/11 01:41:15;;;;;;;6.25;3.60;;;;;;;19.10;75.13;96977.09;5032767;28;20593;-57
2021/08/11 01:43:44;;;;;;;5.28;3.80;;;;;;;19.05;75.20;96979.81;5032062;28;20558;-59
2021/08/11 01:46:13;;;;;;;4.10;3.45;;;;;;;18.97;75.56;96977.72;5031167;28;20206;-57
2021/08/11 01:48:40;;;;;;;5.03;3.67;;;;;;;18.98;75.56;96982.75;5032669;28;20194;-57
2021/08/11 01:51:07;;;;;;;4.53;3.53;;;;;;;19.06;75.16;96979.50;5031226;28;20250;-57
2021/08/11 01:53:33;;;;;;;4.88;3.33;;;;;;;18.98;75.64;96984.63;5033157;28;20194;-57
2021/08/11 01:56:00;;;;;;;4.22;3.40;;;;;;;19.01;75.65;96979.53;5031613;28;20210;-57
2021/08/11 01:58:29;;;;;;;4.15;3.75;;;;;;;18.93;76.07;96982.00;5032751;28;20194;-59
2021/08/11 02:01:06;;;;;;;6.13;4.20;;;;;;;18.87;76.42;96983.09;5032100;28;20186;-57
2021/08/11 02:03:32;;;;;;;7.50;4.07;;;;;;;18.69;77.26;96987.16;5032892;28;20216;-55
2021/08/11 02:05:58;;;;;;;7.13;4.32;;;;;;;18.74;77.14;96981.81;5031871;28;20277;-58
2021/08/11 02:08:25;;;;;;;6.22;4.50;;;;;;;18.76;77.02;96976.25;5032031;28;20186;-58
2021/08/11 02:10:56;;;;;;;6.65;4.25;;;;;;;18.63;77.89;96980.28;5030077;28;20550;-60
2021/08/11 02:13:22;;;;;;;5.10;4.25;;;;;;;18.52;78.54;96970.75;5032853;28;20274;-58
2021/08/11 02:15:49;;;;;;;6.63;4.10;;;;;;;18.32;79.43;96976.13;5031964;28;20210;-61
2021/08/11 02:18:14;;;;;;;4.63;3.70;;;;;;;18.07;80.58;96969.03;5032042;28;20655;-55
2021/08/11 02:20:40;;;;;;;5.07;3.50;;;;;;;18.06;80.90;96967.44;5032582;28;20186;-59
2021/08/11 02:23:05;;;;;;;7.07;3.70;;;;;;;18.08;80.98;96974.09;5032134;28;20190;-57
2021/08/11 02:25:33;;;;;;;3.88;3.47;;;;;;;17.94;81.39;96972.28;5032324;28;20591;-59
2021/08/11 02:28:02;;;;;;;4.50;3.50;;;;;;;17.77;82.34;96969.91;5030337;28;20715;-57
2021/08/11 02:30:40;;;;;;;4.07;3.67;;;;;;;17.83;82.10;96979.47;5032090;28;20183;-58
2021/08/11 02:33:14;;;;;;;4.50;3.60;;;;;;;17.73;82.65;96984.75;5031420;28;20229;-58
2021/08/11 02:35:49;;;;;;;5.77;3.60;;;;;;;17.82;82.31;96991.13;5031768;28;20194;-58
2021/08/11 02:38:20;;;;;;;6.40;3.53;;;;;;;17.78;82.36;96998.00;5030595;28;20236;-58
2021/08/11 02:41:04;;;;;;;4.80;3.60;;;;;;;17.73;82.82;96987.41;5031843;28;20703;-57
2021/08/11 02:43:36;;;;;;;3.83;3.43;;;;;;;17.66;83.24;96992.19;5030622;28;20553;-58
2021/08/11 02:46:11;;;;;;;5.40;3.90;;;;;;;17.73;83.04;96988.19;5030946;28;20195;-58
2021/08/11 02:48:39;;;;;;;4.97;4.10;;;;;;;17.66;83.17;96994.84;5031946;28;20236;-57
2021/08/11 02:51:08;;;;;;;6.67;3.57;;;;;;;17.50;84.19;96986.06;5031420;28;20193;-59
2021/08/11 02:53:34;;;;;;;5.17;3.80;;;;;;;17.57;83.69;96989.22;5031771;28;20209;-58
2021/08/11 02:56:00;;;;;;;4.20;3.80;;;;;;;17.61;83.41;96985.00;5029990;28;20569;-58
2021/08/11 02:58:26;;;;;;;6.53;4.13;;;;;;;17.66;83.57;96990.34;5032020;28;20198;-58
2021/08/11 03:00:53;;;;;;;5.10;4.07;;;;;;;17.75;83.42;96982.63;5030493;28;20174;-62
2021/08/11 03:03:19;;;;;;;4.97;4.30;;;;;;;17.70;83.65;96980.00;5031484;28;20638;-57
2021/08/11 03:05:46;;;;;;;4.83;3.70;;;;;;;17.71;83.53;96984.25;5031260;28;20584;-57
2021/08/11 03:08:12;;;;;;;5.27;4.30;;;;;;;17.55;84.61;96980.78;5030576;28;20186;-59
2021/08/11 03:10:39;;;;;;;4.97;3.73;;;;;;;17.41;85.31;96980.50;5031124;28;20198;-59
2021/08/11 03:13:05;;;;;;;5.47;3.70;;;;;;;17.65;84.46;96982.66;5030986;28;20190;-56
2021/08/11 03:15:31;;;;;;;5.57;3.80;;;;;;;17.63;84.26;96982.91;5031319;28;20205;-57
2021/08/11 03:17:57;;;;;;;6.30;4.23;;;;;;;17.57;84.62;96980.50;5031019;28;20543;-57
2021/08/11 03:20:22;;;;;;;4.70;4.20;;;;;;;17.63;84.24;96982.09;5013207;28;20174;-58
2021/08/11 03:22:48;;;;;;;5.40;4.03;;;;;;;17.75;83.67;96975.47;5030402;28;20199;-56
2021/08/11 03:25:13;;;;;;;6.47;4.27;;;;;;;17.83;82.98;96971.50;5030465;28;20252;-56
2021/08/11 03:27:38;;;;;;;4.87;4.40;;;;;;;17.64;84.06;96973.91;5031747;28;20248;-58
2021/08/11 03:30:05;;;;;;;7.60;4.37;;;;;;;17.70;83.72;96974.69;5030568;28;20183;-56
2021/08/11 03:32:30;;;;;;;7.47;3.97;;;;;;;17.66;83.78;96971.00;5029903;28;20217;-55
2021/08/11 03:34:55;;;;;;;4.77;4.13;;;;;;;17.45;84.93;96975.44;5030307;28;20175;-61
2021/08/11 03:37:21;;;;;;;7.70;4.00;;;;;;;17.29;86.03;96984.47;5029620;28;20668;-59
2021/08/11 03:39:46;;;;;;;4.40;3.97;;;;;;;17.40;85.59;96978.09;5030629;28;20262;-59
2021/08/11 03:42:12;;;;;;;5.97;4.33;;;;;;;17.38;85.37;96993.50;5030585;28;20190;-57
2021/08/11 03:44:37;;;;;;;5.90;3.97;;;;;;;17.52;84.85;96991.88;5030872;28;20206;-59
2021/08/11 03:47:04;;;;;;;5.53;3.80;;;;;;;17.46;85.16;96983.16;5030379;28;20183;-59
2021/08/11 03:49:30;;;;;;;5.67;4.13;;;;;;;17.63;84.01;96988.22;5031212;28;20201;-58
2021/08/11 03:51:55;;;;;;;12.93;4.57;;;;;;;17.54;84.56;96986.34;5012388;28;20189;-60
2021/08/11 03:54:21;;;;;;;6.10;4.50;;;;;;;17.59;84.20;96989.78;5031122;28;20191;-58
2021/08/11 03:56:46;;;;;;;4.47;4.07;;;;;;;17.62;84.14;96991.91;5030215;28;20285;-58
2021/08/11 03:59:12;;;;;;;6.80;4.10;;;;;;;17.64;84.10;96981.84;5029152;28;20229;-57
2021/08/11 04:01:37;;;;;;;6.93;4.30;;;;;;;17.68;83.85;96984.75;5031210;28;20217;-57
2021/08/11 04:04:03;;;;;;;5.27;3.80;;;;;;;17.64;83.98;96983.69;5028807;28;20190;-58
2021/08/11 04:06:28;;;;;;;5.20;4.10;;;;;;;17.56;84.34;96990.28;5030749;28;20183;-59
2021/08/11 04:08:54;;;;;;;4.43;4.00;;;;;;;17.59;84.52;96992.44;5029787;28;20241;-63
2021/08/11 04:11:19;;;;;;;12.13;4.10;;;;;;;17.66;84.34;96989.53;5031172;28;20195;-57
2021/08/11 04:13:45;;;;;;;5.00;4.10;;;;;;;17.71;84.08;96995.63;5029853;28;20186;-56
2021/08/11 04:16:10;;;;;;;5.73;4.40;;;;;;;17.78;84.02;96980.22;5029676;28;20203;-57
2021/08/11 04:18:35;;;;;;;6.53;4.17;;;;;;;17.67;84.56;96986.59;5030781;28;20532;-58
2021/08/11 04:21:01;;;;;;;5.33;4.33;;;;;;;17.69;84.35;96987.16;5029281;28;20269;-58
2021/08/11 04:23:27;;;;;;;6.80;4.70;;;;;;;17.67;84.29;96985.81;5031027;28;20183;-57
2021/08/11 04:25:54;;;;;;;7.07;3.97;;;;;;;17.43;85.60;96989.00;5029232;28;20213;-62
2021/08/11 04:28:19;;;;;;;4.30;3.90;;;;;;;17.32;86.36;96989.25;5030894;28;20190;-56
2021/08/11 04:30:44;;;;;;;6.97;4.13;;;;;;;17.60;84.91;96995.91;5031015;28;20190;-55
2021/08/11 04:33:10;;;;;;;4.83;4.33;;;;;;;17.66;84.49;96993.00;5029947;28;20222;-55
2021/08/11 04:35:39;;;;;;;5.00;4.17;;;;;;;17.46;85.55;96991.09;5030431;28;20198;-57
2021/08/11 04:38:05;;;;;;;6.20;4.03;;;;;;;17.51;85.57;96994.81;5029248;28;20214;-56
2021/08/11 04:40:30;;;;;;;5.20;4.40;;;;;;;17.52;85.56;96999.03;5029278;28;20230;-57
2021/08/11 04:42:55;;;;;;;5.23;4.37;;;;;;;17.64;84.72;96999.59;5029951;28;20654;-62
2021/08/11 04:45:21;;;;;;;5.03;4.03;;;;;;;17.65;84.23;97009.94;5030745;28;20631;-58
2021/08/11 04:47:48;;;;;;;4.80;4.40;;;;;;;17.57;84.90;96997.19;5030717;28;20186;-60
2021/08/11 04:50:14;;;;;;;4.87;3.87;;;;;;;17.65;84.00;96996.69;5029401;28;20686;-60
2021/08/11 04:52:39;;;;;;;9.53;4.60;;;;;;;17.47;85.27;97002.50;5030638;28;20195;-58
2021/08/11 04:55:05;;;;;;;4.83;4.13;;;;;;;17.42;85.47;97005.16;5027827;28;20587;-59
2021/08/11 04:57:31;;;;;;;5.97;4.17;;;;;;;17.41;85.79;97003.53;5029594;28;20614;-57
2021/08/11 04:59:56;;;;;;;6.57;5.00;;;;;;;17.42;85.68;97007.78;5033181;28;20182;-60
2021/08/11 05:02:22;;;;;;;6.17;4.13;;;;;;;17.23;86.55;97010.16;5032521;28;20182;-58
2021/08/11 05:04:47;;;;;;;5.27;4.00;;;;;;;17.08;87.53;97012.78;5033449;28;20257;-60
2021/08/11 05:07:12;;;;;;;5.67;3.97;;;;;;;17.07;87.78;97016.47;5032930;28;20717;-59
2021/08/11 05:09:38;;;;;;;7.57;4.47;;;;;;;17.22;86.58;97011.19;5031841;28;20201;-60
2021/08/11 05:12:04;;;;;;;5.37;4.03;;;;;;;17.43;85.86;97012.03;5032732;28;20270;-59
2021/08/11 05:14:29;;;;;;;5.57;4.50;;;;;;;17.73;84.34;97004.09;5034017;28;20209;-59
2021/08/11 05:16:55;;;;;;;6.93;4.10;;;;;;;17.96;83.55;96999.31;5033094;28;20249;-63
2021/08/11 05:19:20;;;;;;;4.67;3.53;;;;;;;18.36;81.94;97003.72;5033549;28;20198;-60
2021/08/11 05:21:46;;;;;;;4.13;3.50;;;;;;;18.85;79.88;97006.47;5033641;28;20190;-59
2021/08/11 05:24:11;;;;;;;3.70;3.30;;;;;;;19.24;77.74;97003.84;5032698;28;20714;-59
2021/08/11 05:26:38;;;;;;;4.68;3.20;;;;;;;19.69;76.21;97008.06;5033088;28;20190;-59
2021/08/11 05:29:04;;;;;;;3.13;2.83;;;;;;;20.22;74.01;97004.38;5033132;28;20217;-59
2021/08/11 05:31:29;;;;;;;5.90;3.50;;;;;;;20.58;72.07;97010.09;5033033;28;20233;-59
2021/08/11 05:33:55;;;;;;;5.60;3.30;;;;;;;20.87;70.95;97012.69;5032681;28;20573;-63
2021/08/11 05:36:21;;;;;;;3.55;3.00;;;;;;;21.10;69.28;97017.16;5032641;28;20206;-59
2021/08/11 05:38:46;;;;;;;5.07;3.33;;;;;;;21.18;69.35;97012.31;5030002;28;20209;-59
2021/08/11 05:41:11;;;;;;;5.50;3.30;;;;;;;21.32;68.68;97023.81;5031528;28;20305;-60
2021/08/11 05:43:37;;;;;;;4.15;3.10;;;;;;;21.71;67.48;97013.59;5033274;28;20261;-59
2021/08/11 05:46:04;;;;;;;4.50;3.53;;;;;;;22.03;66.52;97012.81;5030747;28;20187;-60
2021/08/11 05:48:30;;;;;;;4.25;3.28;;;;;;;22.28;65.15;97019.59;5032928;28;20198;-60
2021/08/11 05:50:55;;;;;;;5.90;3.22;;;;;;;22.39;64.77;97011.09;5032246;28;20279;-64
2021/08/11 05:53:21;;;;;;;3.60;3.30;;;;;;;22.50;64.41;97014.34;5032945;28;20194;-62
2021/08/11 05:55:46;;;;;;;4.00;2.97;;;;;;;22.61;64.56;97014.94;5032388;28;20285;-60
2021/08/11 05:58:12;;;;;;;4.05;2.90;;;;;;;22.82;64.04;97015.34;5032181;28;20739;-60
2021/08/11 06:00:38;;;;;;;3.67;3.10;;;;;;;23.01;62.97;97024.03;5032356;28;20190;-61
2021/08/11 06:03:04;;;;;;;3.65;2.75;;;;;;;23.23;62.33;97013.38;5032250;28;20190;-60
2021/08/11 06:05:29;;;;;;;3.50;2.85;;;;;;;23.46;61.25;97017.69;5032727;28;20190;-60
2021/08/11 06:07:54;;;;;;;3.30;2.83;;;;;;;23.32;61.43;97018.78;5031817;28;20585;-65
2021/08/11 06:10:20;;;;;;;4.47;3.47;;;;;;;23.34;61.22;97016.63;5032249;28;20508;-61
2021/08/11 06:12:47;;;;;;;5.10;2.90;;;;;;;23.45;60.60;97023.31;5032945;28;20349;-60
2021/08/11 06:15:13;;;;;;;5.85;2.70;;;;;;;23.49;60.32;97027.78;5030222;28;20783;-62
2021/08/11 06:17:43;;;;;;;3.28;2.97;;;;;;;23.53;60.44;97020.72;5031539;28;20277;-62
2021/08/11 06:20:09;;;;;;;4.65;2.92;;;;;;;23.57;60.37;97037.00;5032092;28;20195;-62
2021/08/11 06:22:35;;;;;;;5.47;3.20;;;;;;;23.87;59.40;97027.41;5032694;28;20655;-61
2021/08/11 06:25:00;;;;;;;5.47;3.20;;;;;;;23.91;58.94;97034.53;5031736;28;20193;-61
2021/08/11 06:27:27;;;;;;;3.63;2.70;;;;;;;23.87;58.83;97032.75;5031223;28;20186;-61
2021/08/11 06:29:53;;;;;;;3.60;3.08;;;;;;;23.79;59.55;97034.31;5030069;28;20257;-64
2021/08/11 06:32:18;;;;;;;3.35;2.72;;;;;;;23.76;59.28;97026.06;5031452;28;20523;-60
2021/08/11 06:34:43;;;;;;;3.80;2.97;;;;;;;23.65;59.33;97035.44;5030822;28;20281;-60
2021/08/11 06:37:09;;;;;;;3.88;3.15;;;;;;;23.79;58.70;97039.66;5030625;28;20202;-61
2021/08/11 06:39:34;;;;;;;3.63;3.03;;;;;;;24.03;58.07;97029.41;5031736;28;22055;-60
2021/08/11 06:42:00;;;;;;;3.33;2.53;;;;;;;24.23;57.18;97032.69;5031598;28;20232;-60
2021/08/11 06:44:25;;;;;;;3.03;2.60;;;;;;;24.42;55.78;97041.28;5030494;28;20258;-60
2021/08/11 06:46:50;;;;;;;3.42;2.80;;;;;;;24.20;56.86;97044.81;5030600;28;20270;-61
2021/08/11 06:49:16;;;;;;;3.75;2.90;;;;;;;24.36;56.69;97043.31;5030924;28;20534;-61
2021/08/11 06:51:41;;;;;;;3.67;2.70;;;;;;;24.80;55.45;97039.69;5031562;28;20551;-62
2021/08/11 06:54:10;;;;;;;3.45;2.63;;;;;;;24.76;55.04;97045.97;5030981;28;20202;-62
2021/08/11 06:56:35;;;;;;;3.28;2.70;;;;;;;24.83;54.88;97046.31;5029654;28;20297;-62
2021/08/11 06:59:01;;;;;;;3.08;2.47;;;;;;;25.08;54.03;97059.00;5029865;28;20273;-62
2021/08/11 07:01:26;;;;;;;4.22;2.83;;;;;;;25.03;53.70;97055.69;5030289;28;20296;-62
2021/08/11 07:03:51;;;;;;;2.85;2.60;;;;;;;24.95;53.57;97051.91;5030438;28;20186;-61
2021/08/11 07:06:17;;;;;;;2.83;2.35;;;;;;;24.71;54.45;97052.28;5030219;28;20277;-63
2021/08/11 07:08:42;;;;;;;3.85;2.65;;;;;;;24.28;55.88;97052.09;5031456;28;20175;-62
2021/08/11 07:11:08;;;;;;;3.85;2.50;;;;;;;24.35;55.56;97046.31;5029571;28;20198;-62
2021/08/11 07:13:33;;;;;;;5.07;2.70;;;;;;;24.49;55.59;97047.00;5030233;28;20198;-61
2021/08/11 07:15:58;;;;;;;5.68;2.85;;;;;;;24.61;55.27;97047.19;5029747;28;20198;-62
2021/08/11 07:18:24;;;;;;;3.55;2.85;;;;;;;24.79;54.64;97051.53;5031465;28;20190;-64
2021/08/11 07:20:49;;;;;;;2.40;2.20;;;;;;;24.88;54.80;97040.03;5030351;28;20233;-61
2021/08/11 07:23:15;;;;;;;3.25;2.70;;;;;;;24.81;55.11;97041.25;5030155;28;20214;-62
2021/08/11 07:25:40;;;;;;;3.15;2.42;;;;;;;24.93;54.57;97040.69;5030562;28;20193;-62
2021/08/11 07:28:07;;;;;;;3.45;2.75;;;;;;;24.94;54.38;97038.81;5030554;28;20247;-64
2021/08/11 07:30:32;;;;;;;4.57;2.78;;;;;;;24.83;55.08;97038.28;5030971;28;20182;-61
2021/08/11 07:32:57;;;;;;;4.25;2.35;;;;;;;24.71;55.35;97040.75;5030741;28;20209;-65
2021/08/11 07:35:23;;;;;;;3.70;2.65;;;;;;;24.65;55.40;97036.63;5030885;28;20221;-62
2021/08/11 07:37:54;;;;;;;2.92;2.53;;;;;;;24.84;54.83;97037.19;5030206;28;20232;-62
2021/08/11 07:40:22;;;;;;;5.10;2.58;;;;;;;24.90;54.68;97027.91;5029033;28;20237;-62
2021/08/11 07:42:48;;;;;;;2.90;2.53;;;;;;;25.01;54.57;97034.56;5016756;28;20183;-62
2021/08/11 07:45:15;;;;;;;6.63;2.67;;;;;;;24.91;54.12;97029.47;5030134;28;20194;-61
2021/08/11 07:47:42;;;;;;;3.58;2.70;;;;;;;25.17;53.76;97033.00;5031000;28;20186;-62
2021/08/11 07:50:08;;;;;;;4.70;2.65;;;;;;;25.28;53.42;97033.50;5030031;28;20187;-62
2021/08/11 07:52:34;;;;;;;3.53;2.30;;;;;;;25.27;53.86;97032.69;5030688;28;20190;-61
2021/08/11 07:55:00;;;;;;;3.83;2.15;;;;;;;25.18;53.55;97031.91;5030305;28;20214;-62
2021/08/11 07:57:25;;;;;;;5.28;2.70;;;;;;;25.38;53.23;97030.50;5030611;28;20341;-61
2021/08/11 07:59:51;;;;;;;4.30;2.58;;;;;;;25.44;52.73;97034.59;5031175;28;20190;-61
2021/08/11 08:02:16;;;;;;;3.92;2.70;;;;;;;25.49;53.07;97031.75;5027532;28;20202;-61
2021/08/11 08:04:42;;;;;;;2.63;2.42;;;;;;;25.17;53.17;97035.69;5030729;28;20186;-62
2021/08/11 08:07:08;;;;;;;4.60;2.55;;;;;;;25.13;53.83;97026.66;5029776;28;20605;-61
2021/08/11 08:09:33;;;;;;;3.25;2.50;;;;;;;25.16;53.83;97033.31;5029075;28;20182;-61
2021/08/11 08:11:59;;;;;;;3.33;2.50;;;;;;;25.26;53.61;97033.78;5030126;28;20604;-64
2021/08/11 08:14:24;;;;;;;3.00;2.60;;;;;;;25.29;53.71;97027.03;5030712;28;20183;-61
2021/08/11 08:16:50;;;;;;;2.92;2.72;;;;;;;25.38;53.57;97025.13;5030886;28;20202;-61
2021/08/11 08:19:15;;;;;;;5.55;2.95;;;;;;;25.47;53.31;97025.09;5030579;28;20190;-62
2021/08/11 08:21:40;;;;;;;2.92;2.50;;;;;;;24.99;54.57;97019.88;5030476;28;20190;-59
2021/08/11 08:24:06;;;;;;;5.78;2.92;;;;;;;25.07;54.52;97027.94;5029661;28;20240;-59
2021/08/11 08:26:31;;;;;;;2.63;2.20;;;;;;;25.20;54.14;97024.31;5031035;28;20202;-62
2021/08/11 08:28:56;;;;;;;3.75;2.70;;;;;;;25.21;54.02;97033.16;5030379;28;20186;-61
2021/08/11 08:31:22;;;;;;;3.85;2.55;;;;;;;25.32;53.79;97031.75;5030623;28;20178;-59
2021/08/11 08:33:47;;;;;;;2.75;2.42;;;;;;;25.64;52.92;97028.59;5033660;28;20193;-60
2021/08/11 08:36:13;;;;;;;5.32;2.60;;;;;;;25.77;52.05;97029.56;5031785;28;20237;-59
2021/08/11 08:38:38;;;;;;;2.40;2.20;;;;;;;25.52;53.22;97031.09;5034392;28;20194;-59
2021/08/11 08:41:03;;;;;;;4.03;2.83;;;;;;;25.71;53.10;97035.41;5033294;28;20617;-60
2021/08/11 08:43:29;;;;;;;3.60;2.88;;;;;;;25.89;52.27;97037.75;5034491;28;20186;-60
2021/08/11 08:45:54;;;;;;;2.92;2.05;;;;;;;26.15;51.59;97042.28;5033423;28;20552;-60
2021/08/11 08:48:20;;;;;;;2.90;2.50;;;;;;;26.23;51.31;97036.91;5033205;28;20178;-60
2021/08/11 08:50:49;;;;;;;2.80;2.58;;;;;;;26.24;51.64;97037.72;5033773;28;20179;-60
2021/08/11 08:53:21;;;;;;;2.40;2.20;;;;;;;26.38;51.95;97038.28;5033181;28;20265;-60
2021/08/11 08:55:46;;;;;;;2.85;2.40;;;;;;;26.36;51.23;97041.28;5033262;28;20202;-60
2021/08/11 08:58:12;;;;;;;5.03;2.33;;;;;;;26.35;51.15;97045.09;5032846;28;20193;-60
2021/08/11 09:00:37;;;;;;;3.55;2.70;;;;;;;26.10;52.11;97043.22;5033065;28;20183;-60
2021/08/11 09:03:04;;;;;;;3.38;2.80;;;;;;;25.92;52.71;97042.47;5032861;28;20636;-60
2021/08/11 09:05:29;;;;;;;4.13;2.97;;;;;;;26.01;53.14;97043.28;5033532;28;20183;-60
2021/08/11 09:07:55;;;;;;;2.72;2.53;;;;;;;26.32;52.10;97036.88;5033925;28;20182;-60
2021/08/11 09:10:31;;;;;;;4.20;2.38;;;;;;;26.56;51.83;97050.56;5032619;28;20313;-60
2021/08/11 09:12:59;;;;;;;3.17;2.33;;;;;;;26.32;52.13;97050.31;5033705;28;20173;-60
2021/08/11 09:15:39;;;;;;;3.35;2.42;;;;;;;26.05;52.05;97048.78;5032791;28;20590;-60
2021/08/11 09:18:15;;;;;;;3.63;2.60;;;;;;;26.42;51.91;97047.28;5032641;28;20182;-60
2021/08/11 09:20:43;;;;;;;3.15;2.85;;;;;;;26.56;51.12;97039.78;5032087;28;20192;-60
2021/08/11 09:23:09;;;;;;;2.70;2.50;;;;;;;26.48;50.34;97040.59;5032727;28;20186;-59
2021/08/11 09:25:36;;;;;;;4.43;2.47;;;;;;;26.63;50.45;97039.28;5033490;28;20183;-60
2021/08/11 09:28:01;;;;;;;2.42;2.17;;;;;;;26.72;49.94;97035.44;5031453;28;20182;-62
2021/08/11 09:30:32;;;;;;;2.95;2.53;;;;;;;26.79;49.63;97034.94;5032614;28;20665;-60
2021/08/11 09:32:57;;;;;;;5.47;2.80;;;;;;;26.88;51.14;97039.19;5033395;28;20174;-59
2021/08/11 09:35:27;;;;;;;4.88;2.47;;;;;;;26.47;51.41;97044.44;5031336;28;20987;-60
2021/08/11 09:37:55;;;;;;;4.43;3.25;;;;;;;26.66;50.38;97038.63;5032885;28;20189;-60
2021/08/11 09:40:26;;;;;;;4.35;3.80;;;;;;;26.70;49.54;97040.34;5031501;28;20233;-60
2021/08/11 09:42:54;;;;;;;8.45;5.22;;;;;;;26.89;49.86;97038.06;5017706;28;20194;-59
2021/08/11 09:45:20;;;;;;;4.53;3.30;;;;;;;26.77;49.76;97043.31;5032021;28;20269;-60
2021/08/11 09:48:00;;;;;;;11.65;6.80;;;;;;;27.03;49.43;97037.81;5032980;28;20266;-59
2021/08/11 09:50:48;;;;;;;14.65;6.75;;;;;;;27.06;49.02;97034.50;5032683;28;20662;-59
2021/08/11 09:53:16;;;;;;;3.30;2.50;;;;;;;27.07;47.58;97028.00;5032516;28;20174;-60
2021/08/11 09:56:03;;;;;;;6.82;4.20;;;;;;;27.24;47.65;97035.97;5032213;28;20202;-61
2021/08/11 09:58:30;;;;;;;4.68;3.40;;;;;;;27.36;47.96;97037.13;5031491;28;20971;-60
2021/08/11 10:00:55;;;;;;;2.75;2.50;;;;;;;27.42;47.93;97035.81;5033114;28;20632;-59
2021/08/11 10:03:21;;;;;;;2.95;2.53;;;;;;;27.66;47.40;97036.75;5031940;28;20190;-60
2021/08/11 10:05:46;;;;;;;2.53;2.35;;;;;;;28.18;46.63;97033.56;5031106;28;20194;-60
2021/08/11 10:08:12;;;;;;;2.28;2.08;;;;;;;28.59;44.60;97040.69;5031837;28;20182;-61
2021/08/11 10:10:47;;;;;;;3.83;2.50;;;;;;;28.73;43.57;97026.91;5031506;28;20183;-60
2021/08/11 10:13:18;;;;;;;2.65;2.17;;;;;;;28.82;43.87;97036.44;5031030;28;20186;-60
2021/08/11 10:15:47;;;;;;;2.40;2.20;;;;;;;28.42;44.46;97028.19;5031771;28;20190;-60
2021/08/11 10:18:25;;;;;;;2.78;2.40;;;;;;;28.59;44.29;97037.22;5030344;28;20186;-59
2021/08/11 10:20:54;;;;;;;4.85;2.30;;;;;;;29.29;43.38;97027.84;5028499;28;20171;-60
2021/08/11 10:23:20;;;;;;;3.03;2.40;;;;;;;29.97;41.55;97038.69;5031405;28;20286;-60
2021/08/11 10:25:47;;;;;;;2.63;2.30;;;;;;;30.33;41.31;97037.69;5032407;28;20193;-60
2021/08/11 10:28:16;;;;;;;4.53;3.00;;;;;;;30.28;40.73;97043.34;5031633;28;20195;-60
2021/08/11 10:30:42;;;;;;;2.88;2.58;;;;;;;29.81;41.39;97033.22;5032211;28;20274;-60
2021/08/11 10:33:08;;;;;;;4.57;2.90;;;;;;;29.50;42.25;97033.09;5030064;28;20269;-61
2021/08/11 10:35:34;;;;;;;3.40;2.65;;;;;;;29.03;43.16;97035.56;5031340;28;20183;-63
2021/08/11 10:38:00;;;;;;;3.63;2.90;;;;;;;28.52;44.57;97030.47;5031888;28;20201;-60
2021/08/11 10:40:26;;;;;;;2.50;2.30;;;;;;;28.09;44.96;97028.22;5030894;28;20229;-60
2021/08/11 10:42:56;;;;;;;3.15;2.55;;;;;;;28.44;44.38;97030.56;5032127;28;20191;-60
2021/08/11 10:45:24;;;;;;;3.03;2.72;;;;;;;28.30;45.72;97035.50;5031240;28;20187;-60
2021/08/11 10:47:50;;;;;;;3.25;2.50;;;;;;;28.22;44.77;97031.00;5031830;28;20603;-60
2021/08/11 10:50:15;;;;;;;2.65;2.45;;;;;;;27.61;45.64;97036.16;5031276;28;20194;-60
2021/08/11 10:52:41;;;;;;;3.05;2.60;;;;;;;27.14;47.33;97032.88;5031780;28;20183;-60
2021/08/11 10:55:07;;;;;;;2.78;2.55;;;;;;;27.05;47.62;97030.22;5029258;28;20186;-64
2021/08/11 10:57:40;;;;;;;2.75;2.45;;;;;;;27.18;47.90;97023.00;5031225;28;20230;-60
2021/08/11 11:00:11;;;;;;;3.22;2.40;;;;;;;27.31;47.43;97033.50;5031417;28;20253;-64
2021/08/11 11:02:39;;;;;;;2.50;2.30;;;;;;;26.86;49.35;97033.28;5031587;28;20178;-60
2021/08/11 11:05:06;;;;;;;2.90;2.70;;;;;;;27.07;48.69;97032.59;5028868;28;20273;-64
2021/08/11 11:07:32;;;;;;;3.25;2.38;;;;;;;27.33;48.09;97035.88;5031589;28;20195;-60
2021/08/11 11:10:23;;;;;;;3.05;2.45;;;;;;;27.79;46.83;97036.78;5031399;28;20289;-60
2021/08/11 11:12:48;;;;;;;3.40;2.90;;;;;;;28.22;45.91;97033.69;5018745;28;20644;-60
2021/08/11 11:15:14;;;;;;;4.65;2.67;;;;;;;28.06;46.21;97036.22;5030130;28;20247;-61
2021/08/11 11:18:22;;;;;;;2.85;2.55;;;;;;;28.35;45.73;97032.59;5030821;28;20210;-60
2021/08/11 11:20:56;;;;;;;5.18;2.25;;;;;;;27.98;47.00;97019.00;5027238;28;20233;-60
2021/08/11 11:23:32;;;;;;;4.13;2.85;;;;;;;27.35;48.03;97030.97;5030444;28;20190;-60
2021/08/11 11:26:15;;;;;;;2.85;2.55;;;;;;;26.57;50.75;97024.44;5031093;28;20190;-60
2021/08/11 11:28:58;;;;;;;4.32;2.80;;;;;;;26.22;50.97;97029.94;5031273;28;20270;-60
2021/08/11 11:31:34;;;;;;;3.10;2.80;;;;;;;26.41;51.01;97027.69;5029800;28;20214;-60
2021/08/11 11:34:18;;;;;;;3.83;2.88;;;;;;;26.26;50.96;97035.47;5031046;28;20190;-61